EDT,Max TemperatureF,Mean TemperatureF,Min TemperatureF,Max Dew PointF,MeanDew PointF,Min DewpointF,Max Humidity, Mean Humidity, Min Humidity, Max Sea Level PressureIn, Mean Sea Level PressureIn, Min Sea Level PressureIn, Max VisibilityMiles, Mean VisibilityMiles, Min VisibilityMiles, Max Wind SpeedMPH, Mean Wind SpeedMPH, Max Gust SpeedMPH,PrecipitationIn, CloudCover, Events, WindDirDegrees
2013-5-1,68,53,38,45,39,31,80,60,40,30.48,30.44,30.38,10,10,10,16,5,20,0.00,1,,165
2013-5-2,72,57,42,44,39,35,89,59,28,30.47,30.42,30.35,10,10,10,22,6,26,T,2,Rain,136
2013-5-3,61,53,44,43,39,36,76,64,51,30.50,30.44,30.38,10,10,10,23,12,30,0.00,2,,25
2013-5-4,63,52,40,42,37,25,82,54,25,30.36,30.33,30.29,10,10,10,20,10,29,0.00,0,,43
2013-5-5,62,51,39,45,40,36,92,67,42,30.32,30.29,30.24,10,10,8,15,8,20,0.00,3,,98
2013-5-6,69,57,45,48,45,39,100,73,45,30.30,30.24,30.17,10,8,0,17,6,21,0.00,5,Fog,141
2013-5-7,71,59,46,57,50,45,100,76,51,30.19,30.18,30.13,10,6,0,18,6,23,0.00,5,Fog,140
2013-5-8,72,64,55,63,58,54,100,84,68,30.19,30.13,30.06,10,7,0,23,8,29,0.14,7,Fog-Rain,123
2013-5-9,70,64,57,61,57,55,100,82,63,30.05,29.96,29.88,10,4,0,13,4,16,0.38,8,Fog-Rain,131
2013-5-10,76,65,53,57,55,51,100,73,46,29.97,29.94,29.91,10,10,9,16,7,21,0.00,5,,215
2013-5-11,71,64,56,61,58,54,100,87,73,29.94,29.82,29.72,10,7,1,18,10,36,0.24,7,Rain-Thunderstorm,186
2013-5-12,73,62,50,59,52,29,100,70,40,29.84,29.67,29.60,10,5,0,16,9,26,0.02,6,Fog-Rain,214
2013-5-13,61,51,41,32,28,24,67,47,27,30.04,29.96,29.87,10,10,10,18,10,24,0.00,3,Rain,276
2013-5-14,60,49,38,33,29,26,70,50,30,30.07,30.03,30.00,10,10,10,13,7,18,T,4,,301
2013-5-15,66,52,38,52,42,30,93,61,28,30.08,29.93,29.71,10,10,8,25,10,33,0.02,5,Rain,199
2013-5-16,82,67,52,52,46,37,93,57,21,29.81,29.71,29.67,10,10,7,21,10,26,0.00,3,,247
2013-5-17,72,60,48,48,42,39,80,56,31,30.24,30.03,29.82,10,10,10,18,9,26,0.00,4,,319
2013-5-18,73,59,45,47,44,36,86,57,28,30.32,30.28,30.24,10,10,10,18,7,23,0.00,5,,214
2013-5-19,70,59,47,55,50,45,100,76,51,30.36,30.31,30.24,10,8,2,20,7,24,0.18,6,Rain,182
2013-5-20,83,70,57,65,61,55,100,76,51,30.23,30.04,29.93,10,9,3,12,6,18,0.04,7,Rain,219
2013-5-21,88,71,53,67,61,52,100,75,50,29.99,29.93,29.84,10,7,1,26,8,31,0.20,4,Rain-Thunderstorm,12
2013-5-22,72,63,53,63,57,50,100,87,73,30.01,29.94,29.89,10,7,1,23,7,29,0.01,8,,140
2013-5-23,76,69,61,67,63,60,100,87,73,29.93,29.91,29.85,10,8,1,25,13,36,0.24,8,Rain,202
2013-5-24,68,59,50,64,59,48,100,91,81,29.83,29.76,29.68,10,6,2,18,8,24,0.51,8,Rain,178
2013-5-25,55,49,43,49,46,36,93,85,76,29.81,29.76,29.72,10,6,2,21,11,32,0.22,8,Rain,329
2013-5-26,61,52,42,43,38,36,82,62,42,30.14,29.90,29.77,10,10,10,28,13,40,0.04,6,Rain,295
2013-5-27,73,57,41,42,37,32,89,57,24,30.18,30.14,30.09,10,10,10,21,10,30,0.00,0,,275
2013-5-28,71,59,46,56,47,42,93,65,37,30.24,30.21,30.19,10,10,8,16,6,20,0.02,6,,175
2013-5-29,76,67,57,64,59,55,93,81,68,30.21,30.10,30.02,10,7,2,16,7,26,0.70,7,Rain-Thunderstorm,173
2013-5-30,90,76,61,67,64,61,100,72,44,30.11,30.07,30.02,10,8,1,16,8,23,0.07,4,Fog-Rain-Thunderstorm,229
2013-5-31,92,79,66,69,64,59,93,65,36,30.10,30.05,29.98,10,10,9,20,8,24,0.00,1,,217